Derry, United Kingdom
Current Conditions -  °F | °C
As of 5:20 PM on Friday 28 Nov 2014 (Local Time) from EGAE Reporting Station
Scattered Clouds Scattered Clouds  
Wind Chill: 11°   Ceiling: Unl
Heat Index: 11°   Visibility: 6mi
Dew Point:   Wind: 7mph
Humidity: 82%   Direction: 70°ENE
Pressure: 29.74"   Gusts: NA
Location:  55°N, 7.31°W
Report Text: EGAE 281720Z 07006KT 050V140 9999 SCT028 11/08 Q1007
Loading
Personal Weather Stations






























Interactive Weather Map New forecast layout! Learn more

10-Day Weather Forecast

Advertisements
Track Severe Weather on mobile